createdAt,value
2023-08-23T00:08:23.043Z,99.90
2023-08-23T00:18:26.364Z,99.90
2023-08-23T00:28:28.286Z,99.90
2023-08-23T00:38:31.596Z,99.90
2023-08-23T00:48:34.106Z,99.90
2023-08-23T00:58:37.517Z,99.90
2023-08-23T01:08:56.636Z,99.90
2023-08-23T01:19:02.484Z,99.90
2023-08-23T01:29:05.806Z,99.90
2023-08-23T01:39:08.705Z,99.90
2023-08-23T01:49:12.336Z,99.90
2023-08-23T01:59:14.307Z,99.90
2023-08-23T02:09:17.685Z,99.90
2023-08-23T02:19:19.629Z,99.90
2023-08-23T02:29:22.983Z,99.90
2023-08-23T02:39:24.957Z,99.90
2023-08-23T02:49:28.276Z,99.90
2023-08-23T02:59:30.263Z,99.90
2023-08-23T03:09:33.578Z,99.90
2023-08-23T03:19:35.546Z,99.90
2023-08-23T03:29:38.863Z,99.90
2023-08-23T03:39:40.811Z,99.90
2023-08-23T03:49:44.133Z,99.90
2023-08-23T03:59:46.069Z,99.90
2023-08-23T04:09:49.366Z,99.90
2023-08-23T04:19:51.363Z,99.90
2023-08-23T04:29:54.717Z,99.90
2023-08-23T04:39:56.696Z,99.90
2023-08-23T04:50:00.035Z,99.90
2023-08-23T05:00:01.999Z,99.90
2023-08-23T05:10:06.635Z,99.90
2023-08-23T05:20:09.324Z,99.90
2023-08-23T05:30:13.146Z,99.90
2023-08-23T05:40:15.267Z,99.90
2023-08-23T05:50:18.758Z,99.90
2023-08-23T06:00:20.823Z,99.90
2023-08-23T06:10:24.180Z,99.90
2023-08-23T06:20:26.288Z,99.90
2023-08-23T06:30:29.670Z,99.90
2023-08-23T06:40:31.631Z,99.90
2023-08-23T06:50:36.493Z,99.90
2023-08-23T07:00:38.570Z,99.90
2023-08-23T07:10:43.054Z,99.90
2023-08-23T07:20:46.481Z,99.90
2023-08-23T07:30:50.478Z,99.90
2023-08-23T07:40:56.957Z,99.90
2023-08-23T07:51:00.268Z,99.90
2023-08-23T08:01:02.221Z,99.90
2023-08-23T08:11:05.596Z,99.90
2023-08-23T08:21:07.874Z,99.90
2023-08-23T08:31:11.352Z,99.90
2023-08-23T08:41:13.549Z,99.90
2023-08-23T08:51:17.206Z,99.90
2023-08-23T09:01:19.750Z,99.90
2023-08-23T09:11:23.126Z,95.90
2023-08-23T09:21:25.149Z,95.10
2023-08-23T09:31:43.228Z,93.80
2023-08-23T09:41:59.383Z,91.10
2023-08-23T09:52:04.333Z,90.80
2023-08-23T10:02:10.156Z,88.70
2023-08-23T10:12:15.131Z,90.00
2023-08-23T10:22:18.407Z,89.10
2023-08-23T10:32:22.253Z,89.50
2023-08-23T10:42:24.222Z,88.60
2023-08-23T10:52:27.621Z,89.30
2023-08-23T11:02:31.397Z,87.00
2023-08-23T11:12:34.754Z,87.30
2023-08-23T11:22:37.085Z,85.40
2023-08-23T11:32:40.609Z,83.80
2023-08-23T11:42:42.617Z,85.70
2023-08-23T11:52:48.563Z,85.70
2023-08-23T12:02:50.697Z,84.50
2023-08-23T12:12:54.830Z,87.10
2023-08-23T12:22:56.808Z,87.50
2023-08-23T12:33:00.206Z,87.90
2023-08-23T12:43:02.221Z,88.50
2023-08-23T12:53:05.644Z,90.20
2023-08-23T13:03:07.825Z,89.80
2023-08-23T13:13:11.184Z,90.60
2023-08-23T13:23:13.270Z,90.80
2023-08-23T13:33:16.616Z,91.00
2023-08-23T13:43:18.737Z,91.50
2023-08-23T13:53:22.038Z,91.70
2023-08-23T14:03:24.110Z,91.60
2023-08-23T14:13:27.521Z,91.30
2023-08-23T14:23:29.557Z,91.00
2023-08-23T14:33:32.979Z,89.60
2023-08-23T14:43:35.015Z,88.60
2023-08-23T14:53:38.323Z,90.20
2023-08-23T15:03:40.446Z,89.80
2023-08-23T15:13:43.821Z,90.20
2023-08-23T15:23:45.794Z,90.50
2023-08-23T15:33:49.187Z,90.60
2023-08-23T15:43:51.153Z,89.60
2023-08-23T15:53:54.470Z,90.00
2023-08-23T16:03:56.515Z,90.10
2023-08-23T16:13:59.816Z,90.50
2023-08-23T16:24:01.855Z,90.70
2023-08-23T16:34:05.187Z,90.70
2023-08-23T16:44:07.194Z,91.50
2023-08-23T16:54:10.565Z,91.40
2023-08-23T17:04:12.552Z,91.90
2023-08-23T17:14:15.884Z,92.00
2023-08-23T17:24:17.844Z,92.30
2023-08-23T17:34:21.236Z,92.40
2023-08-23T17:44:24.487Z,94.30
2023-08-23T17:54:28.011Z,94.90
2023-08-23T18:04:29.968Z,95.70
2023-08-23T18:14:33.326Z,96.10
2023-08-23T18:24:35.692Z,96.40
2023-08-23T18:45:44.307Z,98.90
2023-08-23T18:55:46.266Z,98.40
2023-08-23T19:05:52.419Z,98.70
2023-08-23T19:16:14.601Z,99.50
2023-08-23T19:26:18.744Z,99.90
2023-08-23T19:36:21.006Z,99.40
2023-08-23T19:46:24.466Z,99.60
2023-08-23T19:56:28.552Z,99.80
2023-08-23T20:06:36.257Z,99.90
2023-08-23T20:17:14.453Z,99.90
2023-08-23T20:27:17.910Z,99.90
2023-08-23T20:37:25.802Z,99.90
2023-08-23T20:58:48.485Z,99.90
2023-08-23T21:08:54.501Z,99.90
2023-08-23T21:18:56.601Z,99.90
2023-08-23T21:29:04.084Z,99.90
2023-08-23T21:39:09.065Z,99.90
2023-08-23T21:49:17.813Z,99.90
2023-08-23T21:59:20.198Z,99.90
2023-08-23T22:09:24.022Z,99.90
2023-08-23T22:19:26.593Z,99.90
2023-08-23T22:29:30.222Z,99.90
2023-08-23T22:39:32.173Z,99.90
2023-08-23T22:49:35.702Z,99.90
2023-08-23T22:59:37.668Z,99.90
2023-08-23T23:09:40.981Z,99.90
2023-08-23T23:19:42.921Z,99.90
2023-08-23T23:29:46.416Z,99.90
2023-08-23T23:39:48.414Z,99.90
2023-08-23T23:49:51.830Z,99.90
2023-08-23T23:59:53.787Z,99.90
